createdAt,value
2019-01-21T00:00:48.438Z,73.88
2019-01-21T00:01:48.366Z,73.88
2019-01-21T00:02:48.328Z,74.07
2019-01-21T00:03:48.289Z,74.55
2019-01-21T00:04:48.250Z,74.45
2019-01-21T00:05:48.213Z,74.45
2019-01-21T00:06:48.172Z,74.74
2019-01-21T00:07:48.136Z,75.11
2019-01-21T00:08:48.099Z,74.92
2019-01-21T00:09:48.057Z,75.02
2019-01-21T00:10:48.021Z,74.92
2019-01-21T00:11:47.978Z,75.96
2019-01-21T00:12:47.940Z,75.59
2019-01-21T00:13:47.903Z,75.87
2019-01-21T00:14:47.867Z,76.15
2019-01-21T00:15:47.873Z,75.87
2019-01-21T00:16:47.792Z,76.25
2019-01-21T00:17:47.749Z,76.34
2019-01-21T00:18:47.707Z,76.53
2019-01-21T00:19:47.670Z,76.72
2019-01-21T00:20:47.631Z,76.53
2019-01-21T00:21:47.593Z,76.62
2019-01-21T00:22:47.555Z,76.62
2019-01-21T00:23:47.516Z,76.34
2019-01-21T00:24:47.476Z,76.62
2019-01-21T00:25:47.438Z,76.43
2019-01-21T00:26:47.400Z,76.62
2019-01-21T00:27:47.360Z,77.37
2019-01-21T00:28:47.324Z,77.66
2019-01-21T00:29:47.288Z,77.75
2019-01-21T00:30:47.244Z,77.66
2019-01-21T00:31:47.205Z,77.47
2019-01-21T00:32:47.167Z,77.75
2019-01-21T00:33:47.129Z,77.56
2019-01-21T00:34:47.091Z,77.37
2019-01-21T00:35:47.052Z,77.00
2019-01-21T00:36:47.014Z,77.28
2019-01-21T00:37:46.973Z,76.81
2019-01-21T00:38:46.934Z,76.53
2019-01-21T00:39:46.895Z,76.43
2019-01-21T00:40:46.857Z,76.43
2019-01-21T00:41:46.818Z,77.37
2019-01-21T00:42:46.779Z,77.37
2019-01-21T00:43:46.741Z,77.66
2019-01-21T00:44:46.701Z,77.94
2019-01-21T00:45:46.663Z,79.08
2019-01-21T00:46:46.623Z,79.08
2019-01-21T00:47:46.585Z,79.27
2019-01-21T00:48:46.547Z,78.79
2019-01-21T00:49:46.508Z,78.79
2019-01-21T00:50:46.468Z,79.17
2019-01-21T00:51:46.430Z,78.70
2019-01-21T00:52:46.435Z,80.11
2019-01-21T00:53:46.353Z,79.93
2019-01-21T00:54:46.357Z,79.83
2019-01-21T00:55:46.278Z,79.46
2019-01-21T00:56:46.236Z,79.17
2019-01-21T00:57:46.196Z,79.08
2019-01-21T00:58:46.156Z,78.60
2019-01-21T00:59:46.117Z,78.23
2019-01-21T01:00:46.079Z,78.23
2019-01-21T01:01:46.040Z,78.13
2019-01-21T01:02:46.000Z,78.13
2019-01-21T01:03:45.962Z,78.60
2019-01-21T01:04:45.922Z,78.13
2019-01-21T01:05:45.884Z,78.04
2019-01-21T01:06:45.843Z,77.56
2019-01-21T01:07:45.807Z,77.85
2019-01-21T01:08:45.766Z,77.56
2019-01-21T01:09:45.727Z,77.47
2019-01-21T01:10:45.689Z,77.66
2019-01-21T01:11:45.649Z,77.66
2019-01-21T01:12:45.610Z,77.66
2019-01-21T01:13:45.570Z,77.19
2019-01-21T01:14:45.530Z,77.47
2019-01-21T01:15:45.494Z,77.37
2019-01-21T01:16:45.456Z,77.28
2019-01-21T01:17:45.414Z,77.37
2019-01-21T01:18:45.376Z,76.81
2019-01-21T01:19:45.336Z,77.28
2019-01-21T01:20:45.297Z,76.34
2019-01-21T01:21:45.258Z,76.53
2019-01-21T01:22:45.217Z,76.43
2019-01-21T01:23:45.179Z,76.62
2019-01-21T01:24:45.139Z,76.53
2019-01-21T01:25:45.101Z,76.62
2019-01-21T01:26:45.062Z,76.62
2019-01-21T01:27:45.022Z,76.62
2019-01-21T01:28:44.983Z,76.43
2019-01-21T01:29:44.944Z,76.06
2019-01-21T01:30:44.905Z,76.43
2019-01-21T01:31:44.870Z,76.34
2019-01-21T01:32:44.826Z,75.96
2019-01-21T01:33:44.788Z,76.15
2019-01-21T01:34:44.749Z,75.87
2019-01-21T01:35:44.708Z,76.15
2019-01-21T01:36:44.671Z,76.15
2019-01-21T01:37:44.631Z,76.43
2019-01-21T01:38:44.594Z,76.34
2019-01-21T01:39:44.551Z,76.34
2019-01-21T01:40:44.513Z,76.25
2019-01-21T01:41:44.475Z,76.34
2019-01-21T01:42:44.435Z,76.34
2019-01-21T01:43:44.397Z,76.34
2019-01-21T01:44:44.358Z,76.06
2019-01-21T01:45:44.318Z,76.34
2019-01-21T01:46:44.284Z,76.53
2019-01-21T01:47:44.801Z,75.87
2019-01-21T01:48:44.201Z,76.15
2019-01-21T01:49:44.164Z,76.34
2019-01-21T01:50:44.122Z,76.34
2019-01-21T01:51:44.083Z,75.96
2019-01-21T01:52:44.045Z,76.06
2019-01-21T01:53:44.004Z,76.06
2019-01-21T01:54:43.964Z,76.15
2019-01-21T01:55:43.930Z,76.15
2019-01-21T01:56:43.887Z,76.15
2019-01-21T01:57:43.852Z,76.34
2019-01-21T01:58:43.809Z,76.34
2019-01-21T01:59:43.771Z,75.78
2019-01-21T02:00:43.731Z,75.78
2019-01-21T02:01:43.693Z,76.15
2019-01-21T02:02:43.653Z,76.06
2019-01-21T02:03:43.613Z,75.87
2019-01-21T02:04:43.578Z,75.96
2019-01-21T02:05:43.537Z,76.06
2019-01-21T02:06:43.497Z,75.96
2019-01-21T02:07:43.457Z,76.43
2019-01-21T02:08:43.418Z,76.25
2019-01-21T02:09:43.380Z,76.43
2019-01-21T02:10:43.343Z,76.62
2019-01-21T02:11:43.300Z,76.34
2019-01-21T02:12:43.262Z,76.62
2019-01-21T02:13:43.224Z,76.72
2019-01-21T02:14:43.184Z,77.19
2019-01-21T02:15:43.146Z,76.34
2019-01-21T02:16:43.107Z,76.43
2019-01-21T02:17:43.067Z,76.62
2019-01-21T02:18:43.029Z,76.81
2019-01-21T02:19:42.989Z,76.25
2019-01-21T02:20:42.950Z,76.25
2019-01-21T02:21:42.912Z,76.43
2019-01-21T02:22:42.870Z,76.34
2019-01-21T02:23:42.834Z,76.34
2019-01-21T02:24:42.793Z,76.34
2019-01-21T02:25:42.758Z,76.43
2019-01-21T02:26:42.717Z,76.62
2019-01-21T02:27:42.674Z,76.43
2019-01-21T02:28:42.639Z,76.81
2019-01-21T02:29:42.599Z,76.34
2019-01-21T02:30:42.559Z,76.43
2019-01-21T02:31:42.522Z,76.53
2019-01-21T02:32:42.482Z,76.81
2019-01-21T02:33:42.442Z,77.09
2019-01-21T02:34:42.404Z,76.43
2019-01-21T02:35:42.367Z,76.62
2019-01-21T02:36:42.326Z,76.43
2019-01-21T02:37:42.288Z,76.72
2019-01-21T02:38:42.248Z,77.28
2019-01-21T02:39:42.211Z,77.19
2019-01-21T02:40:42.171Z,77.28
2019-01-21T02:41:42.132Z,77.28
2019-01-21T02:42:42.091Z,76.81
2019-01-21T02:43:42.054Z,76.72
2019-01-21T02:44:42.014Z,77.19
2019-01-21T02:45:41.975Z,77.28
2019-01-21T02:46:41.936Z,77.19
2019-01-21T02:47:41.900Z,76.34
2019-01-21T02:48:41.877Z,77.56
2019-01-21T02:49:41.825Z,77.56
2019-01-21T02:50:41.785Z,77.85
2019-01-21T02:51:41.741Z,77.56
2019-01-21T02:52:41.706Z,77.94
2019-01-21T02:53:41.664Z,78.42
2019-01-21T02:54:41.625Z,78.42
2019-01-21T02:55:41.588Z,78.13
2019-01-21T02:56:41.550Z,78.32
2019-01-21T02:57:41.509Z,78.04
2019-01-21T02:58:41.469Z,77.75
2019-01-21T02:59:41.438Z,77.66
2019-01-21T03:00:41.392Z,77.75
2019-01-21T03:01:41.354Z,77.47
2019-01-21T03:02:41.315Z,77.66
2019-01-21T03:03:41.275Z,77.47
2019-01-21T03:04:41.256Z,77.37
2019-01-21T03:05:41.199Z,77.56
2019-01-21T03:06:41.159Z,77.47
2019-01-21T03:07:41.120Z,77.19
2019-01-21T03:08:41.084Z,77.37
2019-01-21T03:09:41.041Z,77.09
2019-01-21T03:10:41.002Z,77.66
2019-01-21T03:11:40.963Z,77.56
2019-01-21T03:12:40.926Z,77.66
2019-01-21T03:13:40.889Z,77.56
2019-01-21T03:14:40.847Z,77.47
2019-01-21T03:15:40.807Z,77.56
2019-01-21T03:16:40.768Z,77.75
2019-01-21T03:17:40.731Z,77.66
2019-01-21T03:18:40.690Z,78.32
2019-01-21T03:19:40.651Z,78.04
2019-01-21T03:20:40.613Z,78.42
2019-01-21T03:21:40.574Z,78.32
2019-01-21T03:22:40.535Z,78.42
2019-01-21T03:23:40.496Z,78.42
2019-01-21T03:24:40.457Z,78.32
2019-01-21T03:25:40.420Z,78.42
2019-01-21T03:26:40.380Z,78.32
2019-01-21T03:27:40.340Z,78.60
2019-01-21T03:28:40.303Z,77.94
2019-01-21T03:29:40.267Z,78.13
2019-01-21T03:30:40.225Z,77.56
2019-01-21T03:31:40.189Z,77.47
2019-01-21T03:32:40.146Z,77.66
2019-01-21T03:33:40.109Z,77.66
2019-01-21T03:34:40.068Z,77.66
2019-01-21T03:35:40.031Z,77.47
2019-01-21T03:36:39.995Z,77.75
2019-01-21T03:37:39.952Z,77.56
2019-01-21T03:38:39.913Z,77.75
2019-01-21T03:39:39.873Z,77.75
2019-01-21T03:40:39.840Z,77.56
2019-01-21T03:41:39.796Z,77.28
2019-01-21T03:42:39.759Z,78.13
2019-01-21T03:43:39.719Z,78.23
2019-01-21T03:44:39.679Z,78.13
2019-01-21T03:45:39.640Z,78.04
2019-01-21T03:46:39.610Z,78.42
2019-01-21T03:47:39.561Z,78.60
2019-01-21T03:48:39.523Z,78.51
2019-01-21T03:49:39.483Z,78.60
2019-01-21T03:50:39.444Z,78.42
2019-01-21T03:51:39.406Z,78.89
2019-01-21T03:52:39.368Z,79.74
2019-01-21T03:53:39.330Z,80.02
2019-01-21T03:54:39.287Z,80.58
2019-01-21T03:55:39.250Z,80.11
2019-01-21T03:56:39.210Z,80.30
2019-01-21T03:57:39.170Z,80.11
2019-01-21T03:58:39.133Z,80.30
2019-01-21T03:59:39.094Z,80.40
2019-01-21T04:00:39.055Z,80.40
2019-01-21T04:01:39.015Z,81.43
2019-01-21T04:02:38.976Z,81.81
2019-01-21T04:03:38.941Z,82.28
2019-01-21T04:04:38.900Z,81.81
2019-01-21T04:05:38.861Z,81.43
2019-01-21T04:06:38.820Z,81.24
2019-01-21T04:07:38.780Z,81.24
2019-01-21T04:08:38.743Z,80.96
2019-01-21T04:09:38.703Z,81.05
2019-01-21T04:10:38.664Z,81.43
2019-01-21T04:11:38.626Z,80.87
2019-01-21T04:12:38.586Z,80.96
2019-01-21T04:13:38.549Z,81.05
2019-01-21T04:14:38.508Z,80.96
2019-01-21T04:15:38.470Z,80.49
2019-01-21T04:16:38.430Z,80.40
2019-01-21T04:17:38.391Z,80.68
2019-01-21T04:18:38.352Z,80.49
2019-01-21T04:19:38.313Z,80.58
2019-01-21T04:20:38.275Z,80.58
2019-01-21T04:21:38.235Z,80.68
2019-01-21T04:22:38.198Z,80.68
2019-01-21T04:23:38.160Z,80.58
2019-01-21T04:24:38.119Z,80.68
2019-01-21T04:25:38.081Z,80.58
2019-01-21T04:26:38.041Z,80.68
2019-01-21T04:27:38.004Z,80.30
2019-01-21T04:28:37.963Z,80.49
2019-01-21T04:29:37.925Z,80.58
2019-01-21T04:30:37.885Z,80.68
2019-01-21T04:31:37.850Z,80.21
2019-01-21T04:32:37.811Z,79.93
2019-01-21T04:33:37.770Z,80.30
2019-01-21T04:34:37.729Z,80.49
2019-01-21T04:35:37.692Z,80.21
2019-01-21T04:36:37.654Z,79.93
2019-01-21T04:37:37.615Z,80.02
2019-01-21T04:38:37.575Z,80.30
2019-01-21T04:39:37.541Z,80.30
2019-01-21T04:40:37.505Z,80.30
2019-01-21T04:41:37.460Z,80.77
2019-01-21T04:42:37.421Z,80.77
2019-01-21T04:43:37.383Z,80.68
2019-01-21T04:44:37.346Z,80.58
2019-01-21T04:45:37.304Z,80.68
2019-01-21T04:46:37.266Z,80.30
2019-01-21T04:47:37.226Z,80.58
2019-01-21T04:48:37.189Z,80.30
2019-01-21T04:49:37.152Z,80.40
2019-01-21T04:50:37.109Z,80.49
2019-01-21T04:51:37.072Z,80.68
2019-01-21T04:52:37.036Z,80.49
2019-01-21T04:53:36.993Z,80.96
2019-01-21T04:54:36.952Z,80.77
2019-01-21T04:55:36.917Z,81.15
2019-01-21T04:56:36.877Z,81.34
2019-01-21T04:57:36.842Z,81.72
2019-01-21T04:58:36.799Z,82.57
2019-01-21T04:59:36.758Z,82.57
2019-01-21T05:00:36.718Z,82.95
2019-01-21T05:01:36.682Z,83.04
2019-01-21T05:02:36.641Z,83.61
2019-01-21T05:03:36.602Z,83.04
2019-01-21T05:04:36.565Z,83.14
2019-01-21T05:05:36.530Z,83.42
2019-01-21T05:06:36.485Z,83.14
2019-01-21T05:07:36.447Z,82.57
2019-01-21T05:08:36.408Z,82.76
2019-01-21T05:09:36.372Z,82.47
2019-01-21T05:10:36.328Z,82.76
2019-01-21T05:11:36.291Z,82.47
2019-01-21T05:12:36.252Z,82.57
2019-01-21T05:13:36.213Z,82.57
2019-01-21T05:14:36.173Z,82.66
2019-01-21T05:15:36.133Z,83.14
2019-01-21T05:16:36.097Z,83.04
2019-01-21T05:17:36.057Z,82.57
2019-01-21T05:18:41.218Z,82.66
2019-01-21T05:19:35.980Z,82.76
2019-01-21T05:20:35.940Z,82.38
2019-01-21T05:21:35.901Z,82.57
2019-01-21T05:22:35.861Z,82.95
2019-01-21T05:23:35.824Z,82.47
2019-01-21T05:24:35.787Z,82.57
2019-01-21T05:25:35.744Z,81.72
2019-01-21T05:26:35.705Z,81.43
2019-01-21T05:27:35.666Z,81.53
2019-01-21T05:28:35.627Z,81.15
2019-01-21T05:29:35.589Z,81.34
2019-01-21T05:30:35.549Z,81.15
2019-01-21T05:31:35.511Z,81.05
2019-01-21T05:32:35.477Z,81.24
2019-01-21T05:33:35.432Z,80.96
2019-01-21T05:34:35.390Z,81.15
2019-01-21T05:35:35.451Z,81.43
2019-01-21T05:36:35.314Z,81.81
2019-01-21T05:37:35.274Z,81.91
2019-01-21T05:38:35.240Z,82.10
2019-01-21T05:39:35.194Z,82.28
2019-01-21T05:40:35.159Z,82.66
2019-01-21T05:41:35.117Z,82.19
2019-01-21T05:42:35.084Z,82.28
2019-01-21T05:43:35.039Z,82.47
2019-01-21T05:44:35.002Z,82.57
2019-01-21T05:45:34.960Z,82.57
2019-01-21T05:46:34.919Z,82.57
2019-01-21T05:47:34.881Z,82.38
2019-01-21T05:48:34.842Z,82.10
2019-01-21T05:49:34.805Z,82.57
2019-01-21T05:50:34.765Z,82.47
2019-01-21T05:51:34.724Z,82.47
2019-01-21T05:52:34.684Z,82.85
2019-01-21T05:53:34.644Z,82.76
2019-01-21T05:54:34.605Z,82.95
2019-01-21T05:55:34.565Z,82.76
2019-01-21T05:56:34.529Z,82.95
2019-01-21T05:57:34.490Z,82.76
2019-01-21T05:58:34.448Z,82.57
2019-01-21T05:59:34.409Z,82.00
2019-01-21T06:00:34.369Z,81.72
2019-01-21T06:01:34.328Z,81.91
2019-01-21T06:02:34.288Z,81.91
2019-01-21T06:03:34.250Z,81.62
2019-01-21T06:04:34.211Z,81.53
2019-01-21T06:05:34.171Z,82.00
2019-01-21T06:06:34.130Z,82.76
2019-01-21T06:07:34.093Z,82.38
2019-01-21T06:08:34.053Z,82.06
2019-01-21T06:09:34.017Z,81.81
2019-01-21T06:10:33.973Z,81.72
2019-01-21T06:11:33.934Z,81.58
2019-01-21T06:12:33.896Z,81.77
2019-01-21T06:13:33.855Z,81.58
2019-01-21T06:14:33.815Z,81.58
2019-01-21T06:15:33.775Z,82.06
2019-01-21T06:16:33.737Z,82.00
2019-01-21T06:17:33.697Z,82.57
2019-01-21T06:18:33.657Z,82.24
2019-01-21T06:19:33.617Z,82.57
2019-01-21T06:20:33.579Z,82.24
2019-01-21T06:21:33.539Z,82.66
2019-01-21T06:22:33.499Z,82.95
2019-01-21T06:23:33.460Z,83.14
2019-01-21T06:24:33.420Z,83.75
2019-01-21T06:25:33.381Z,83.33
2019-01-21T06:26:33.339Z,83.80
2019-01-21T06:27:33.301Z,83.75
2019-01-21T06:28:33.260Z,84.32
2019-01-21T06:29:33.221Z,84.69
2019-01-21T06:30:33.181Z,84.64
2019-01-21T06:31:33.141Z,84.41
2019-01-21T06:32:33.101Z,85.45
2019-01-21T06:33:33.063Z,85.21
2019-01-21T06:34:33.023Z,85.36
2019-01-21T06:35:33.232Z,85.54
2019-01-21T06:36:32.945Z,86.30
2019-01-21T06:37:32.910Z,86.21
2019-01-21T06:38:32.864Z,86.02
2019-01-21T06:39:32.825Z,86.11
2019-01-21T06:40:32.785Z,86.02
2019-01-21T06:41:32.745Z,86.40
2019-01-21T06:42:32.704Z,86.49
2019-01-21T06:43:32.666Z,86.77
2019-01-21T06:44:32.627Z,86.87
2019-01-21T06:45:32.587Z,86.68
2019-01-21T06:46:32.546Z,86.40
2019-01-21T06:47:32.510Z,86.68
2019-01-21T06:48:32.467Z,86.77
2019-01-21T06:49:32.428Z,87.34
2019-01-21T06:50:32.387Z,87.05
2019-01-21T06:51:32.386Z,87.43
2019-01-21T06:52:32.308Z,87.52
2019-01-21T06:53:32.269Z,87.34
2019-01-21T06:54:32.229Z,87.34
2019-01-21T06:55:32.189Z,87.99
2019-01-21T06:56:32.151Z,88.18
2019-01-21T06:57:32.110Z,88.18
2019-01-21T06:58:32.074Z,88.32
2019-01-21T06:59:32.033Z,88.18
2019-01-21T07:00:31.990Z,88.23
2019-01-21T07:01:33.316Z,88.42
2019-01-21T07:02:31.913Z,88.18
2019-01-21T07:03:31.906Z,88.13
2019-01-21T07:04:31.835Z,88.65
2019-01-21T07:05:31.794Z,89.27
2019-01-21T07:06:31.785Z,89.32
2019-01-21T07:07:31.716Z,89.36
2019-01-21T07:08:31.676Z,89.45
2019-01-21T07:09:31.640Z,89.41
2019-01-21T07:10:31.598Z,89.36
2019-01-21T07:11:31.558Z,89.98
2019-01-21T07:12:31.523Z,89.51
2019-01-21T07:13:31.478Z,89.41
2019-01-21T07:14:31.438Z,89.36
2019-01-21T07:15:31.400Z,89.27
2019-01-21T07:16:31.361Z,89.64
2019-01-21T07:17:31.323Z,89.60
2019-01-21T07:18:31.280Z,89.69
2019-01-21T07:19:31.241Z,90.45
2019-01-21T07:20:31.201Z,90.59
2019-01-21T07:21:31.163Z,90.87
2019-01-21T07:22:31.122Z,90.68
2019-01-21T07:23:31.082Z,90.55
2019-01-21T07:24:31.043Z,91.20
2019-01-21T07:25:31.005Z,92.24
2019-01-21T07:26:30.962Z,92.14
2019-01-21T07:27:30.924Z,91.91
2019-01-21T07:28:30.886Z,92.19
2019-01-21T07:29:30.844Z,92.38
2019-01-21T07:30:30.804Z,92.57
2019-01-21T07:31:30.766Z,93.13
2019-01-21T07:32:30.726Z,93.61
2019-01-21T07:33:30.687Z,93.99
2019-01-21T07:34:30.647Z,94.22
2019-01-21T07:35:30.607Z,94.46
2019-01-21T07:36:30.568Z,95.31
2019-01-21T07:37:30.529Z,95.17
2019-01-21T07:38:30.487Z,95.36
2019-01-21T07:39:33.779Z,95.59
2019-01-21T07:40:30.409Z,95.59
2019-01-21T07:41:30.370Z,95.87
2019-01-21T07:42:30.329Z,96.63
2019-01-21T07:43:30.290Z,97.05
2019-01-21T07:44:30.249Z,98.28
2019-01-21T07:45:30.210Z,98.28
2019-01-21T07:46:30.174Z,98.94
2019-01-21T07:47:30.132Z,98.75
2019-01-21T07:48:30.093Z,99.37
2019-01-21T07:49:30.052Z,99.74
2019-01-21T07:50:30.011Z,99.60
2019-01-21T07:51:29.972Z,99.99
2019-01-21T07:52:29.932Z,99.99
2019-01-21T07:53:29.894Z,99.99
2019-01-21T07:54:29.853Z,99.99
2019-01-21T07:55:29.815Z,99.99
2019-01-21T07:56:29.781Z,99.99
2019-01-21T07:57:29.734Z,99.99
2019-01-21T07:58:29.795Z,99.99
2019-01-21T07:59:29.654Z,99.99
2019-01-21T08:00:29.616Z,99.99
2019-01-21T08:01:29.575Z,99.99
2019-01-21T08:02:29.535Z,99.99
2019-01-21T08:03:29.497Z,99.99
2019-01-21T08:04:29.455Z,99.99
2019-01-21T08:05:29.416Z,99.99
2019-01-21T08:06:29.375Z,99.99
2019-01-21T08:07:29.337Z,99.99
2019-01-21T08:08:29.297Z,99.99
2019-01-21T08:09:29.258Z,99.99
2019-01-21T08:10:29.216Z,99.99
2019-01-21T08:11:29.178Z,99.99
2019-01-21T08:12:29.136Z,99.99
2019-01-21T08:13:29.097Z,99.99
2019-01-21T08:14:29.057Z,99.99
2019-01-21T08:15:29.019Z,99.99
2019-01-21T08:16:28.979Z,99.99
2019-01-21T08:17:28.942Z,99.99
2019-01-21T08:18:28.896Z,99.99
2019-01-21T08:19:28.858Z,99.99
2019-01-21T08:20:28.819Z,99.99
2019-01-21T08:21:28.778Z,99.99
2019-01-21T08:22:28.737Z,99.99
2019-01-21T08:23:30.324Z,99.99
2019-01-21T08:24:28.658Z,99.99
2019-01-21T08:25:28.619Z,99.99
2019-01-21T08:26:28.577Z,99.99
2019-01-21T08:27:28.537Z,99.99
2019-01-21T08:28:28.498Z,99.99
2019-01-21T08:29:28.458Z,99.99
2019-01-21T08:30:28.420Z,99.99
2019-01-21T08:31:28.378Z,99.99
2019-01-21T08:32:28.339Z,99.99
2019-01-21T08:33:28.298Z,99.99
2019-01-21T08:34:28.260Z,99.99
2019-01-21T08:35:28.217Z,99.99
2019-01-21T08:36:28.178Z,99.99
2019-01-21T08:37:28.140Z,99.99
2019-01-21T08:38:28.098Z,99.99
2019-01-21T08:39:28.059Z,99.99
2019-01-21T08:40:28.020Z,99.99
2019-01-21T08:41:27.978Z,99.99
2019-01-21T08:42:27.939Z,99.99
2019-01-21T08:43:27.900Z,99.99
2019-01-21T08:44:27.859Z,99.99
2019-01-21T08:45:27.820Z,99.99
2019-01-21T08:46:27.780Z,99.99
2019-01-21T08:47:27.740Z,99.99
2019-01-21T08:48:27.701Z,99.99
2019-01-21T08:49:30.772Z,99.99
2019-01-21T08:50:27.621Z,99.99
2019-01-21T08:51:27.585Z,99.99
2019-01-21T08:52:27.542Z,99.99
2019-01-21T08:53:27.503Z,99.99
2019-01-21T08:54:27.463Z,99.99
2019-01-21T08:55:27.426Z,99.99
2019-01-21T08:56:27.386Z,99.99
2019-01-21T08:57:27.347Z,99.99
2019-01-21T08:58:27.308Z,99.99
2019-01-21T08:59:27.270Z,99.99
2019-01-21T09:00:27.230Z,99.99
2019-01-21T09:01:27.191Z,99.99
2019-01-21T09:02:27.167Z,99.99
2019-01-21T09:03:27.114Z,99.99
2019-01-21T09:04:27.076Z,99.99
2019-01-21T09:05:27.037Z,99.99
2019-01-21T09:06:26.996Z,99.99
2019-01-21T09:07:26.959Z,99.99
2019-01-21T09:08:26.920Z,99.99
2019-01-21T09:09:26.880Z,99.99
2019-01-21T09:10:26.843Z,99.99
2019-01-21T09:11:26.803Z,99.99
2019-01-21T09:12:26.763Z,99.99
2019-01-21T09:13:26.725Z,99.99
2019-01-21T09:14:26.685Z,99.99
2019-01-21T09:15:26.652Z,99.99
2019-01-21T09:16:26.609Z,99.99
2019-01-21T09:17:26.571Z,99.99
2019-01-21T09:18:26.531Z,99.99
2019-01-21T09:19:26.496Z,99.99
2019-01-21T09:20:26.455Z,99.99
2019-01-21T09:21:26.420Z,99.99
2019-01-21T09:22:26.377Z,99.99
2019-01-21T09:23:26.341Z,99.99
2019-01-21T09:24:26.302Z,99.99
2019-01-21T09:25:26.265Z,99.99
2019-01-21T09:26:26.228Z,99.99
2019-01-21T09:27:26.189Z,99.99
2019-01-21T09:28:26.153Z,99.99
2019-01-21T09:29:26.937Z,99.99
2019-01-21T09:30:26.077Z,99.99
2019-01-21T09:31:26.040Z,99.99
2019-01-21T09:32:26.001Z,99.99
2019-01-21T09:33:25.964Z,99.99
2019-01-21T09:34:25.926Z,99.99
2019-01-21T09:35:25.894Z,99.99
2019-01-21T09:36:25.854Z,99.99
2019-01-21T09:37:25.816Z,99.99
2019-01-21T09:38:25.778Z,99.99
2019-01-21T09:39:25.742Z,99.99
2019-01-21T09:40:25.709Z,99.99
2019-01-21T09:41:25.668Z,99.99
2019-01-21T09:42:25.632Z,99.99
2019-01-21T09:43:25.598Z,99.99
2019-01-21T09:44:25.559Z,99.99
2019-01-21T09:45:25.521Z,99.99
2019-01-21T09:46:25.486Z,99.99
2019-01-21T09:47:25.452Z,99.99
2019-01-21T09:48:25.413Z,99.99
2019-01-21T09:49:25.395Z,99.99
2019-01-21T09:50:25.340Z,99.99
2019-01-21T09:51:25.304Z,99.99
2019-01-21T09:52:25.369Z,99.99
2019-01-21T09:53:25.233Z,99.99
2019-01-21T09:54:25.195Z,99.99
2019-01-21T09:55:25.161Z,99.99
2019-01-21T09:56:25.126Z,99.99
2019-01-21T09:57:25.088Z,99.99
2019-01-21T09:58:25.052Z,99.99
2019-01-21T09:59:25.017Z,99.99
2019-01-21T10:00:24.982Z,99.99
2019-01-21T10:01:24.949Z,99.99
2019-01-21T10:02:24.909Z,99.99
2019-01-21T10:03:24.873Z,99.99
2019-01-21T10:04:24.837Z,99.99
2019-01-21T10:05:24.802Z,99.99
2019-01-21T10:06:24.765Z,99.99
2019-01-21T10:07:24.728Z,99.99
2019-01-21T10:08:24.692Z,99.99
2019-01-21T10:09:24.656Z,99.99
2019-01-21T10:10:24.619Z,99.99
2019-01-21T10:11:24.583Z,99.99
2019-01-21T10:12:24.546Z,99.99
2019-01-21T10:13:24.510Z,99.99
2019-01-21T10:14:24.476Z,99.99
2019-01-21T10:15:24.438Z,99.99
2019-01-21T10:16:24.403Z,99.99
2019-01-21T10:17:24.366Z,99.99
2019-01-21T10:18:24.329Z,99.99
2019-01-21T10:19:24.293Z,99.99
2019-01-21T10:20:24.258Z,99.99
2019-01-21T10:21:24.223Z,99.99
2019-01-21T10:22:24.186Z,99.99
2019-01-21T10:23:24.152Z,99.99
2019-01-21T10:24:24.116Z,99.99
2019-01-21T10:25:24.081Z,99.99
2019-01-21T10:26:24.045Z,99.99
2019-01-21T10:27:24.009Z,99.99
2019-01-21T10:28:23.975Z,99.99
2019-01-21T10:29:23.939Z,99.99
2019-01-21T10:30:23.904Z,99.99
2019-01-21T10:31:23.869Z,99.99
2019-01-21T10:32:23.835Z,99.99
2019-01-21T10:33:23.805Z,99.99
2019-01-21T10:34:23.849Z,99.99
2019-01-21T10:35:23.729Z,99.99
2019-01-21T10:36:23.694Z,99.99
2019-01-21T10:37:23.661Z,99.99
2019-01-21T10:38:23.623Z,99.99
2019-01-21T10:39:23.589Z,99.99
2019-01-21T10:40:23.555Z,99.99
2019-01-21T10:41:23.519Z,99.99
2019-01-21T10:42:23.485Z,99.99
2019-01-21T10:43:23.451Z,99.99
2019-01-21T10:44:23.415Z,99.99
2019-01-21T10:45:23.393Z,99.99
2019-01-21T10:46:23.344Z,99.99
2019-01-21T10:47:23.310Z,99.99
2019-01-21T10:48:23.275Z,99.99
2019-01-21T10:49:23.241Z,99.99
2019-01-21T10:50:23.204Z,99.99
2019-01-21T10:51:23.171Z,99.99
2019-01-21T10:52:23.134Z,99.99
2019-01-21T10:53:23.102Z,99.99
2019-01-21T10:54:23.063Z,99.99
2019-01-21T10:55:23.029Z,99.99
2019-01-21T10:56:23.009Z,99.99
2019-01-21T10:57:22.958Z,99.99
2019-01-21T10:58:22.922Z,99.99
2019-01-21T10:59:22.888Z,99.99
2019-01-21T11:00:22.852Z,99.99
2019-01-21T11:01:22.818Z,99.99
2019-01-21T11:02:22.782Z,99.99
2019-01-21T11:03:22.750Z,99.99
2019-01-21T11:04:22.713Z,99.99
2019-01-21T11:05:22.678Z,99.99
2019-01-21T11:06:22.643Z,99.99
2019-01-21T11:07:22.605Z,99.99
2019-01-21T11:08:22.570Z,99.99
2019-01-21T11:09:26.690Z,99.99
2019-01-21T11:10:22.499Z,99.99
2019-01-21T11:11:22.465Z,99.99
2019-01-21T11:12:22.429Z,99.99
2019-01-21T11:13:22.395Z,99.99
2019-01-21T11:14:22.357Z,99.99
2019-01-21T11:15:22.322Z,99.99
2019-01-21T11:16:22.288Z,99.99
2019-01-21T11:17:22.252Z,99.99
2019-01-21T11:18:22.215Z,99.99
2019-01-21T11:19:22.252Z,99.99
2019-01-21T11:20:22.147Z,99.99
2019-01-21T11:21:22.109Z,99.99
2019-01-21T11:22:22.074Z,99.99
2019-01-21T11:23:22.040Z,99.99
2019-01-21T11:24:22.003Z,99.99
2019-01-21T11:25:21.969Z,99.99
2019-01-21T11:26:21.933Z,99.99
2019-01-21T11:27:21.896Z,99.99
2019-01-21T11:28:21.863Z,99.99
2019-01-21T11:29:21.829Z,99.99
2019-01-21T11:30:21.792Z,99.99
2019-01-21T11:31:23.720Z,99.99
2019-01-21T11:32:21.720Z,99.99
2019-01-21T11:33:21.686Z,99.99
2019-01-21T11:34:21.649Z,99.99
2019-01-21T11:35:21.612Z,99.99
2019-01-21T11:36:21.579Z,99.99
2019-01-21T11:37:21.542Z,99.99
2019-01-21T11:38:21.507Z,99.99
2019-01-21T11:39:21.471Z,99.99
2019-01-21T11:40:21.437Z,99.99
2019-01-21T11:41:21.401Z,99.99
2019-01-21T11:42:21.364Z,99.99
2019-01-21T11:43:21.328Z,99.99
2019-01-21T11:44:21.294Z,99.99
2019-01-21T11:45:21.257Z,99.99
2019-01-21T11:46:21.221Z,99.99
2019-01-21T11:47:21.186Z,99.99
2019-01-21T11:48:21.152Z,99.99
2019-01-21T11:49:21.115Z,99.99
2019-01-21T11:50:21.079Z,99.99
2019-01-21T11:51:21.044Z,99.99
2019-01-21T11:52:21.008Z,99.99
2019-01-21T11:53:20.974Z,99.99
2019-01-21T11:54:20.938Z,99.99
2019-01-21T11:55:20.904Z,99.99
2019-01-21T11:56:20.872Z,99.99
2019-01-21T11:57:20.833Z,99.99
2019-01-21T11:58:20.796Z,99.99
2019-01-21T11:59:20.761Z,99.99
2019-01-21T12:00:20.726Z,99.99
2019-01-21T12:01:20.692Z,99.99
2019-01-21T12:02:20.655Z,99.99
2019-01-21T12:03:23.585Z,99.99
2019-01-21T12:04:20.585Z,99.99
2019-01-21T12:05:20.553Z,99.99
2019-01-21T12:06:20.516Z,99.99
2019-01-21T12:07:20.481Z,99.99
2019-01-21T12:08:20.445Z,99.99
2019-01-21T12:09:20.410Z,98.73
2019-01-21T12:10:20.380Z,99.99
2019-01-21T12:11:20.341Z,97.78
2019-01-21T12:12:20.305Z,99.99
2019-01-21T12:13:20.272Z,99.99
2019-01-21T12:14:20.263Z,99.99
2019-01-21T12:15:20.202Z,99.99
2019-01-21T12:16:20.177Z,99.99
2019-01-21T12:17:20.381Z,99.99
2019-01-21T12:18:20.098Z,99.99
2019-01-21T12:19:20.063Z,99.99
2019-01-21T12:20:20.028Z,99.99
2019-01-21T12:21:19.992Z,99.99
2019-01-21T12:22:19.960Z,99.99
2019-01-21T12:23:19.924Z,99.99
2019-01-21T12:24:19.939Z,99.99
2019-01-21T12:25:19.854Z,99.99
2019-01-21T12:26:19.819Z,99.99
2019-01-21T12:27:19.788Z,99.99
2019-01-21T12:28:19.750Z,99.99
2019-01-21T12:29:19.714Z,99.99
2019-01-21T12:30:19.680Z,99.99
2019-01-21T12:31:19.649Z,99.99
2019-01-21T12:32:19.610Z,99.99
2019-01-21T12:33:19.576Z,99.99
2019-01-21T12:34:19.550Z,99.99
2019-01-21T12:35:19.505Z,99.99
2019-01-21T12:36:19.472Z,99.99
2019-01-21T12:37:19.437Z,99.99
2019-01-21T12:38:19.499Z,99.99
2019-01-21T12:39:19.368Z,99.99
2019-01-21T12:40:19.332Z,99.99
2019-01-21T12:41:21.658Z,99.99
2019-01-21T12:42:19.261Z,99.99
2019-01-21T12:43:19.226Z,99.99
2019-01-21T12:44:19.191Z,99.99
2019-01-21T12:45:19.156Z,99.99
2019-01-21T12:46:19.121Z,99.99
2019-01-21T12:47:19.086Z,99.99
2019-01-21T12:48:19.049Z,99.99
2019-01-21T12:49:19.016Z,99.99
2019-01-21T12:50:23.981Z,99.99
2019-01-21T12:51:18.944Z,99.99
2019-01-21T12:52:18.909Z,99.99